Terminal Aerodrome Forecast
Issued by NWS Dallas/Fort Worth, TX

Home | Current Version | Previous Version | Text Only | Print | Product List | Glossary On
Versions: 1 2 3 4 5 6 7 8 9 10 11 12 13 14 15 16 17 18 19 20 21 22 23 24
000
FTUS44 KFWD 250900 AAA
TAFACT
TAF AMD
KACT 250900Z 2509/2606 19009KT P6SM FEW250
     FM251600 18019G29KT P6SM FEW250
     FM260100 17016KT P6SM FEW250
     FM260500 17015KT P6SM OVC015=

USA.gov is the U.S. government's official web portal to all federal, state and local government web resources and services.